sensor_id;sensor_type;location;lat;lon;timestamp;pressure;altitude;pressure_sealevel;temperature;humidity
70968;BME280;58629;48.808;8.820;2023-04-07T00:01:19;97107.84;;;5.60;94.99
70968;BME280;58629;48.808;8.820;2023-04-07T00:03:45;97098.09;;;5.60;94.76
70968;BME280;58629;48.808;8.820;2023-04-07T00:06:10;97099.22;;;5.59;94.42
70968;BME280;58629;48.808;8.820;2023-04-07T00:08:36;97101.47;;;5.57;94.89
70968;BME280;58629;48.808;8.820;2023-04-07T00:11:01;97107.47;;;5.58;95.03
70968;BME280;58629;48.808;8.820;2023-04-07T00:13:26;97103.34;;;5.53;94.60
70968;BME280;58629;48.808;8.820;2023-04-07T00:15:52;97099.22;;;5.52;94.66
70968;BME280;58629;48.808;8.820;2023-04-07T00:18:17;97095.84;;;5.52;94.21
70968;BME280;58629;48.808;8.820;2023-04-07T00:20:42;97097.69;;;5.51;93.85
70968;BME280;58629;48.808;8.820;2023-04-07T00:23:08;97085.31;;;5.52;93.62
70968;BME280;58629;48.808;8.820;2023-04-07T00:25:33;97095.06;;;5.51;94.00
70968;BME280;58629;48.808;8.820;2023-04-07T00:27:58;97089.06;;;5.47;94.51
70968;BME280;58629;48.808;8.820;2023-04-07T00:30:24;97086.06;;;5.45;94.81
70968;BME280;58629;48.808;8.820;2023-04-07T00:32:49;97082.69;;;5.45;94.86
70968;BME280;58629;48.808;8.820;2023-04-07T00:35:16;97087.56;;;5.43;94.96
70968;BME280;58629;48.808;8.820;2023-04-07T00:37:41;97084.19;;;5.42;95.57
70968;BME280;58629;48.808;8.820;2023-04-07T00:40:07;97076.66;;;5.37;96.24
70968;BME280;58629;48.808;8.820;2023-04-07T00:42:32;97076.69;;;5.41;96.62
70968;BME280;58629;48.808;8.820;2023-04-07T00:44:58;97068.06;;;5.44;95.84
70968;BME280;58629;48.808;8.820;2023-04-07T00:47:23;97059.06;;;5.48;95.48
70968;BME280;58629;48.808;8.820;2023-04-07T00:49:49;97055.28;;;5.49;95.93
70968;BME280;58629;48.808;8.820;2023-04-07T00:52:14;97049.66;;;5.47;96.71
70968;BME280;58629;48.808;8.820;2023-04-07T00:54:41;97044.81;;;5.46;97.09
70968;BME280;58629;48.808;8.820;2023-04-07T00:57:06;97039.53;;;5.46;97.05
70968;BME280;58629;48.808;8.820;2023-04-07T00:59:32;97039.94;;;5.41;97.77
70968;BME280;58629;48.808;8.820;2023-04-07T01:02:04;97035.41;;;5.41;97.08
70968;BME280;58629;48.808;8.820;2023-04-07T01:04:35;97036.53;;;5.44;96.21
70968;BME280;58629;48.808;8.820;2023-04-07T01:07:11;97032.06;;;5.41;96.23
70968;BME280;58629;48.808;8.820;2023-04-07T01:09:48;97026.78;;;5.37;96.33
70968;BME280;58629;48.808;8.820;2023-04-07T01:12:24;97024.16;;;5.37;96.25
70968;BME280;58629;48.808;8.820;2023-04-07T01:14:54;97018.53;;;5.39;96.27
70968;BME280;58629;48.808;8.820;2023-04-07T01:17:24;97013.28;;;5.39;96.09
70968;BME280;58629;48.808;8.820;2023-04-07T01:19:58;97015.16;;;5.38;95.91
70968;BME280;58629;48.808;8.820;2023-04-07T01:22:31;97007.28;;;5.35;96.47
70968;BME280;58629;48.808;8.820;2023-04-07T01:25:34;97011.03;;;5.34;96.10
70968;BME280;58629;48.808;8.820;2023-04-07T01:28:24;97010.25;;;5.33;95.63
70968;BME280;58629;48.808;8.820;2023-04-07T01:30:55;97001.28;;;5.34;95.06
70968;BME280;58629;48.808;8.820;2023-04-07T01:33:22;97005.78;;;5.37;94.97
70968;BME280;58629;48.808;8.820;2023-04-07T01:35:49;97003.53;;;5.39;94.90
70968;BME280;58629;48.808;8.820;2023-04-07T01:38:16;96997.53;;;5.39;95.24
70968;BME280;58629;48.808;8.820;2023-04-07T01:40:42;96992.25;;;5.35;95.33
70968;BME280;58629;48.808;8.820;2023-04-07T01:43:08;96990.78;;;5.34;94.96
70968;BME280;58629;48.808;8.820;2023-04-07T01:45:34;96999.03;;;5.33;94.91
70968;BME280;58629;48.808;8.820;2023-04-07T01:48:00;96989.66;;;5.32;95.04
70968;BME280;58629;48.808;8.820;2023-04-07T01:50:26;96989.66;;;5.28;94.81
70968;BME280;58629;48.808;8.820;2023-04-07T01:52:52;96988.91;;;5.24;95.38
70968;BME280;58629;48.808;8.820;2023-04-07T01:55:18;96982.13;;;5.23;95.24
70968;BME280;58629;48.808;8.820;2023-04-07T01:57:43;96981.41;;;5.22;95.47
70968;BME280;58629;48.808;8.820;2023-04-07T02:00:08;96974.25;;;5.23;95.38
70968;BME280;58629;48.808;8.820;2023-04-07T02:02:40;96972.00;;;5.25;95.50
70968;BME280;58629;48.808;8.820;2023-04-07T02:05:08;96972.00;;;5.25;96.05
70968;BME280;58629;48.808;8.820;2023-04-07T02:07:52;96973.91;;;5.24;95.99
70968;BME280;58629;48.808;8.820;2023-04-07T02:10:22;96976.53;;;5.24;96.23
70968;BME280;58629;48.808;8.820;2023-04-07T02:12:47;96971.28;;;5.24;96.00
70968;BME280;58629;48.808;8.820;2023-04-07T02:15:14;96976.16;;;5.26;96.47
70968;BME280;58629;48.808;8.820;2023-04-07T02:17:46;96968.66;;;5.28;96.27
70968;BME280;58629;48.808;8.820;2023-04-07T02:20:12;96971.66;;;5.30;95.93
70968;BME280;58629;48.808;8.820;2023-04-07T02:22:39;96973.88;;;5.32;96.08
70968;BME280;58629;48.808;8.820;2023-04-07T02:25:26;96964.91;;;5.33;95.40
70968;BME280;58629;48.808;8.820;2023-04-07T02:27:52;96960.38;;;5.33;95.56
70968;BME280;58629;48.808;8.820;2023-04-07T02:30:18;96957.03;;;5.33;95.76
70968;BME280;58629;48.808;8.820;2023-04-07T02:32:44;96961.53;;;5.32;95.89
70968;BME280;58629;48.808;8.820;2023-04-07T02:35:10;96952.88;;;5.32;96.09
70968;BME280;58629;48.808;8.820;2023-04-07T02:37:36;96955.13;;;5.29;95.71
70968;BME280;58629;48.808;8.820;2023-04-07T02:40:02;96961.16;;;5.30;95.96
70968;BME280;58629;48.808;8.820;2023-04-07T02:42:27;96952.13;;;5.31;96.13
70968;BME280;58629;48.808;8.820;2023-04-07T02:44:53;96949.13;;;5.29;96.06
70968;BME280;58629;48.808;8.820;2023-04-07T02:47:18;96958.91;;;5.28;95.71
70968;BME280;58629;48.808;8.820;2023-04-07T02:49:43;96955.50;;;5.32;96.23
70968;BME280;58629;48.808;8.820;2023-04-07T02:52:09;96951.03;;;5.32;95.89
70968;BME280;58629;48.808;8.820;2023-04-07T02:54:34;96942.38;;;5.32;96.31
70968;BME280;58629;48.808;8.820;2023-04-07T02:57:00;96945.00;;;5.32;96.12
70968;BME280;58629;48.808;8.820;2023-04-07T02:59:26;96943.50;;;5.27;96.82
70968;BME280;58629;48.808;8.820;2023-04-07T03:01:51;96945.75;;;5.25;96.57
70968;BME280;58629;48.808;8.820;2023-04-07T03:04:16;96949.88;;;5.26;97.20
70968;BME280;58629;48.808;8.820;2023-04-07T03:06:41;96949.50;;;5.24;96.90
70968;BME280;58629;48.808;8.820;2023-04-07T03:09:07;96943.50;;;5.27;96.92
70968;BME280;58629;48.808;8.820;2023-04-07T03:11:32;96939.03;;;5.24;96.51
70968;BME280;58629;48.808;8.820;2023-04-07T03:13:57;96940.88;;;5.27;96.71
70968;BME280;58629;48.808;8.820;2023-04-07T03:16:22;96936.75;;;5.29;96.83
70968;BME280;58629;48.808;8.820;2023-04-07T03:18:48;96940.91;;;5.31;97.09
70968;BME280;58629;48.808;8.820;2023-04-07T03:21:13;96931.13;;;5.31;97.61
70968;BME280;58629;48.808;8.820;2023-04-07T03:23:38;96929.25;;;5.32;97.57
70968;BME280;58629;48.808;8.820;2023-04-07T03:26:04;96923.25;;;5.31;97.01
70968;BME280;58629;48.808;8.820;2023-04-07T03:28:29;96920.63;;;5.31;97.08
70968;BME280;58629;48.808;8.820;2023-04-07T03:30:54;96918.75;;;5.32;97.14
70968;BME280;58629;48.808;8.820;2023-04-07T03:33:19;96917.28;;;5.31;97.73
70968;BME280;58629;48.808;8.820;2023-04-07T03:35:45;96922.13;;;5.32;97.93
70968;BME280;58629;48.808;8.820;2023-04-07T03:38:10;96927.78;;;5.31;97.71
70968;BME280;58629;48.808;8.820;2023-04-07T03:40:36;96919.88;;;5.27;97.92
70968;BME280;58629;48.808;8.820;2023-04-07T03:43:01;96924.03;;;5.24;97.48
70968;BME280;58629;48.808;8.820;2023-04-07T03:45:27;96922.50;;;5.27;97.62
70968;BME280;58629;48.808;8.820;2023-04-07T03:47:52;96920.25;;;5.29;97.62
70968;BME280;58629;48.808;8.820;2023-04-07T03:50:18;96915.00;;;5.29;97.76
70968;BME280;58629;48.808;8.820;2023-04-07T03:52:43;96921.38;;;5.32;97.52
70968;BME280;58629;48.808;8.820;2023-04-07T03:55:09;96913.13;;;5.29;97.80
70968;BME280;58629;48.808;8.820;2023-04-07T03:57:34;96907.13;;;5.25;98.36
70968;BME280;58629;48.808;8.820;2023-04-07T03:59:59;96907.13;;;5.22;98.34
70968;BME280;58629;48.808;8.820;2023-04-07T04:02:25;96906.00;;;5.23;98.78
70968;BME280;58629;48.808;8.820;2023-04-07T04:04:50;96904.88;;;5.24;98.75
70968;BME280;58629;48.808;8.820;2023-04-07T04:07:15;96898.50;;;5.21;98.09
70968;BME280;58629;48.808;8.820;2023-04-07T04:09:40;96900.75;;;5.19;98.24
70968;BME280;58629;48.808;8.820;2023-04-07T04:12:06;96900.38;;;5.21;97.93
70968;BME280;58629;48.808;8.820;2023-04-07T04:14:32;96908.25;;;5.21;97.91
70968;BME280;58629;48.808;8.820;2023-04-07T04:16:57;96905.63;;;5.21;97.90
70968;BME280;58629;48.808;8.820;2023-04-07T04:19:22;96906.00;;;5.19;97.65
70968;BME280;58629;48.808;8.820;2023-04-07T04:21:47;96904.16;;;5.16;97.74
70968;BME280;58629;48.808;8.820;2023-04-07T04:24:13;96901.53;;;5.16;97.68
70968;BME280;58629;48.808;8.820;2023-04-07T04:26:38;96897.75;;;5.14;98.27
70968;BME280;58629;48.808;8.820;2023-04-07T04:29:03;96899.63;;;5.13;98.00
70968;BME280;58629;48.808;8.820;2023-04-07T04:31:29;96897.78;;;5.10;97.74
70968;BME280;58629;48.808;8.820;2023-04-07T04:33:54;96895.88;;;5.07;97.64
70968;BME280;58629;48.808;8.820;2023-04-07T04:36:20;96902.28;;;5.06;97.48
70968;BME280;58629;48.808;8.820;2023-04-07T04:38:45;96904.50;;;5.08;98.06
70968;BME280;58629;48.808;8.820;2023-04-07T04:41:10;96900.41;;;5.07;97.72
70968;BME280;58629;48.808;8.820;2023-04-07T04:43:36;96911.25;;;5.05;98.06
70968;BME280;58629;48.808;8.820;2023-04-07T04:46:01;96912.03;;;5.02;97.70
70968;BME280;58629;48.808;8.820;2023-04-07T04:48:26;96901.91;;;5.04;98.44
70968;BME280;58629;48.808;8.820;2023-04-07T04:50:51;96912.38;;;5.08;98.50
70968;BME280;58629;48.808;8.820;2023-04-07T04:53:17;96912.75;;;5.10;98.55
70968;BME280;58629;48.808;8.820;2023-04-07T04:55:42;96918.00;;;5.10;98.40
70968;BME280;58629;48.808;8.820;2023-04-07T04:58:11;96910.50;;;5.12;98.60
70968;BME280;58629;48.808;8.820;2023-04-07T05:00:36;96901.16;;;5.11;97.78
70968;BME280;58629;48.808;8.820;2023-04-07T05:03:01;96907.50;;;5.13;97.97
70968;BME280;58629;48.808;8.820;2023-04-07T05:05:27;96906.00;;;5.16;97.87
70968;BME280;58629;48.808;8.820;2023-04-07T05:07:52;96914.66;;;5.13;97.04
70968;BME280;58629;48.808;8.820;2023-04-07T05:10:18;96913.91;;;5.12;98.23
70968;BME280;58629;48.808;8.820;2023-04-07T05:12:43;96917.28;;;5.13;98.65
70968;BME280;58629;48.808;8.820;2023-04-07T05:15:09;96916.91;;;5.11;97.83
70968;BME280;58629;48.808;8.820;2023-04-07T05:17:34;96915.03;;;5.01;97.61
70968;BME280;58629;48.808;8.820;2023-04-07T05:20:00;96914.25;;;4.86;97.82
70968;BME280;58629;48.808;8.820;2023-04-07T05:22:25;96914.63;;;4.81;98.27
70968;BME280;58629;48.808;8.820;2023-04-07T05:24:50;96917.59;;;4.80;98.96
70968;BME280;58629;48.808;8.820;2023-04-07T05:27:15;96921.38;;;4.79;99.09
70968;BME280;58629;48.808;8.820;2023-04-07T05:29:41;96916.88;;;4.79;99.21
70968;BME280;58629;48.808;8.820;2023-04-07T05:32:06;96911.97;;;4.78;99.24
70968;BME280;58629;48.808;8.820;2023-04-07T05:34:31;96911.97;;;4.78;99.53
70968;BME280;58629;48.808;8.820;2023-04-07T05:36:57;96911.25;;;4.77;99.19
70968;BME280;58629;48.808;8.820;2023-04-07T05:39:22;96906.75;;;4.78;99.21
70968;BME280;58629;48.808;8.820;2023-04-07T05:41:47;96909.75;;;4.76;98.87
70968;BME280;58629;48.808;8.820;2023-04-07T05:44:12;96913.13;;;4.77;99.63
70968;BME280;58629;48.808;8.820;2023-04-07T05:46:38;96908.97;;;4.76;99.70
70968;BME280;58629;48.808;8.820;2023-04-07T05:49:03;96914.25;;;4.79;99.88
70968;BME280;58629;48.808;8.820;2023-04-07T05:51:28;96916.88;;;4.83;99.32
70968;BME280;58629;48.808;8.820;2023-04-07T05:53:53;96913.13;;;4.87;99.58
70968;BME280;58629;48.808;8.820;2023-04-07T05:56:19;96913.50;;;4.89;99.53
70968;BME280;58629;48.808;8.820;2023-04-07T05:58:45;96912.00;;;4.92;99.67
70968;BME280;58629;48.808;8.820;2023-04-07T06:01:11;96915.00;;;4.97;99.94
70968;BME280;58629;48.808;8.820;2023-04-07T06:03:36;96913.53;;;4.93;99.08
70968;BME280;58629;48.808;8.820;2023-04-07T06:06:01;96915.00;;;4.94;100.00
70968;BME280;58629;48.808;8.820;2023-04-07T06:08:27;96914.25;;;5.00;100.00
70968;BME280;58629;48.808;8.820;2023-04-07T06:10:52;96913.16;;;5.08;100.00
70968;BME280;58629;48.808;8.820;2023-04-07T06:13:17;96906.38;;;5.18;99.58
70968;BME280;58629;48.808;8.820;2023-04-07T06:15:43;96912.38;;;5.22;99.03
70968;BME280;58629;48.808;8.820;2023-04-07T06:18:08;96913.88;;;5.23;99.50
70968;BME280;58629;48.808;8.820;2023-04-07T06:20:33;96919.13;;;5.23;99.64
70968;BME280;58629;48.808;8.820;2023-04-07T06:22:59;96916.16;;;5.24;99.05
70968;BME280;58629;48.808;8.820;2023-04-07T06:25:25;96922.13;;;5.25;99.33
70968;BME280;58629;48.808;8.820;2023-04-07T06:27:50;96922.50;;;5.27;99.27
70968;BME280;58629;48.808;8.820;2023-04-07T06:30:15;96924.78;;;5.28;98.91
70968;BME280;58629;48.808;8.820;2023-04-07T06:32:41;96922.50;;;5.34;98.58
70968;BME280;58629;48.808;8.820;2023-04-07T06:35:06;96925.88;;;5.38;98.38
70968;BME280;58629;48.808;8.820;2023-04-07T06:37:32;96919.88;;;5.41;97.96
70968;BME280;58629;48.808;8.820;2023-04-07T06:39:57;96926.25;;;5.44;97.66
70968;BME280;58629;48.808;8.820;2023-04-07T06:42:22;96926.22;;;5.51;97.77
70968;BME280;58629;48.808;8.820;2023-04-07T06:44:48;96924.75;;;5.50;97.63
70968;BME280;58629;48.808;8.820;2023-04-07T06:47:13;96920.97;;;5.51;97.08
70968;BME280;58629;48.808;8.820;2023-04-07T06:49:38;96916.84;;;5.53;97.10
70968;BME280;58629;48.808;8.820;2023-04-07T06:52:04;96909.72;;;5.54;96.41
70968;BME280;58629;48.808;8.820;2023-04-07T06:54:29;96909.34;;;5.55;97.28
70968;BME280;58629;48.808;8.820;2023-04-07T06:56:55;96918.69;;;5.74;96.62
70968;BME280;58629;48.808;8.820;2023-04-07T06:59:21;96911.94;;;5.94;95.46
70968;BME280;58629;48.808;8.820;2023-04-07T07:01:46;96914.09;;;6.17;94.73
70968;BME280;58629;48.808;8.820;2023-04-07T07:04:13;96917.38;;;6.35;93.62
70968;BME280;58629;48.808;8.820;2023-04-07T07:06:38;96921.81;;;6.52;92.48
70968;BME280;58629;48.808;8.820;2023-04-07T07:09:03;96913.09;;;6.62;91.38
70968;BME280;58629;48.808;8.820;2023-04-07T07:11:29;96915.72;;;6.69;91.30
70968;BME280;58629;48.808;8.820;2023-04-07T07:13:54;96918.25;;;6.79;91.01
70968;BME280;58629;48.808;8.820;2023-04-07T07:16:20;96919.97;;;7.03;90.60
70968;BME280;58629;48.808;8.820;2023-04-07T07:18:48;96915.00;;;7.16;90.11
70968;BME280;58629;48.808;8.820;2023-04-07T07:21:13;96918.66;;;7.29;88.43
70968;BME280;58629;48.808;8.820;2023-04-07T07:23:38;96921.13;;;7.50;87.99
70968;BME280;58629;48.808;8.820;2023-04-07T07:26:03;96926.97;;;7.65;87.13
70968;BME280;58629;48.808;8.820;2023-04-07T07:28:29;96928.66;;;7.85;87.70
70968;BME280;58629;48.808;8.820;2023-04-07T07:30:54;96927.00;;;8.02;85.72
70968;BME280;58629;48.808;8.820;2023-04-07T07:33:20;96919.59;;;8.24;85.84
70968;BME280;58629;48.808;8.820;2023-04-07T07:35:47;96913.38;;;8.41;85.07
70968;BME280;58629;48.808;8.820;2023-04-07T07:38:12;96912.63;;;8.40;83.55
70968;BME280;58629;48.808;8.820;2023-04-07T07:40:37;96912.56;;;8.44;83.63
70968;BME280;58629;48.808;8.820;2023-04-07T07:43:02;96915.19;;;8.47;83.69
70968;BME280;58629;48.808;8.820;2023-04-07T07:45:28;96919.81;;;8.66;82.15
70968;BME280;58629;48.808;8.820;2023-04-07T07:47:53;96916.50;;;8.86;81.35
70968;BME280;58629;48.808;8.820;2023-04-07T07:50:18;96918.22;;;8.99;79.62
70968;BME280;58629;48.808;8.820;2023-04-07T07:52:43;96923.66;;;8.89;78.99
70968;BME280;58629;48.808;8.820;2023-04-07T07:55:09;96920.00;;;9.06;79.42
70968;BME280;58629;48.808;8.820;2023-04-07T07:57:35;96914.44;;;9.23;78.08
70968;BME280;58629;48.808;8.820;2023-04-07T08:00:01;96919.97;;;9.32;78.53
70968;BME280;58629;48.808;8.820;2023-04-07T08:02:27;96921.16;;;9.28;73.76
70968;BME280;58629;48.808;8.820;2023-04-07T08:04:58;96915.19;;;9.47;77.67
70968;BME280;58629;48.808;8.820;2023-04-07T08:07:25;96915.69;;;9.61;74.42
70968;BME280;58629;48.808;8.820;2023-04-07T08:09:51;96913.31;;;9.90;76.19
70968;BME280;58629;48.808;8.820;2023-04-07T08:12:16;96915.31;;;9.83;72.87
70968;BME280;58629;48.808;8.820;2023-04-07T08:14:41;96911.25;;;9.98;75.56
70968;BME280;58629;48.808;8.820;2023-04-07T08:17:07;96911.03;;;10.08;73.16
70968;BME280;58629;48.808;8.820;2023-04-07T08:19:32;96920.16;;;10.07;73.74
70968;BME280;58629;48.808;8.820;2023-04-07T08:21:57;96924.75;;;10.03;72.54
70968;BME280;58629;48.808;8.820;2023-04-07T08:24:23;96922.75;;;10.11;74.12
70968;BME280;58629;48.808;8.820;2023-04-07T08:26:48;96930.31;;;10.09;75.91
70968;BME280;58629;48.808;8.820;2023-04-07T08:29:13;96930.03;;;9.84;71.89
70968;BME280;58629;48.808;8.820;2023-04-07T08:31:39;96930.28;;;10.12;75.85
70968;BME280;58629;48.808;8.820;2023-04-07T08:34:04;96929.19;;;10.29;74.24
70968;BME280;58629;48.808;8.820;2023-04-07T08:36:30;96930.41;;;10.44;73.03
70968;BME280;58629;48.808;8.820;2023-04-07T08:38:56;96928.69;;;10.34;71.74
70968;BME280;58629;48.808;8.820;2023-04-07T08:41:36;96923.47;;;9.92;71.82
70968;BME280;58629;48.808;8.820;2023-04-07T08:44:02;96926.13;;;9.92;72.97
70968;BME280;58629;48.808;8.820;2023-04-07T08:46:28;96931.50;;;9.85;70.80
70968;BME280;58629;48.808;8.820;2023-04-07T08:48:54;96937.44;;;9.92;72.24
70968;BME280;58629;48.808;8.820;2023-04-07T08:51:30;96923.84;;;9.71;70.56
70968;BME280;58629;48.808;8.820;2023-04-07T08:54:10;96923.34;;;10.18;72.56
70968;BME280;58629;48.808;8.820;2023-04-07T08:56:37;96925.78;;;10.48;70.19
70968;BME280;58629;48.808;8.820;2023-04-07T08:59:06;96928.63;;;10.58;69.83
70968;BME280;58629;48.808;8.820;2023-04-07T09:01:33;96929.59;;;10.64;69.16
70968;BME280;58629;48.808;8.820;2023-04-07T09:04:01;96940.69;;;10.59;69.99
70968;BME280;58629;48.808;8.820;2023-04-07T09:06:28;96932.53;;;10.33;70.92
70968;BME280;58629;48.808;8.820;2023-04-07T09:08:53;96939.13;;;10.02;72.45
70968;BME280;58629;48.808;8.820;2023-04-07T09:11:19;96938.69;;;10.27;66.37
70968;BME280;58629;48.808;8.820;2023-04-07T09:13:44;96944.00;;;10.63;69.78
70968;BME280;58629;48.808;8.820;2023-04-07T09:16:10;96933.53;;;10.75;69.87
70968;BME280;58629;48.808;8.820;2023-04-07T09:18:38;96934.63;;;10.94;64.55
70968;BME280;58629;48.808;8.820;2023-04-07T09:21:04;96940.63;;;11.14;64.26
70968;BME280;58629;48.808;8.820;2023-04-07T09:23:39;96935.13;;;11.53;65.31
70968;BME280;58629;48.808;8.820;2023-04-07T09:28:44;96938.00;;;12.19;62.21
70968;BME280;58629;48.808;8.820;2023-04-07T09:31:09;96938.72;;;12.61;62.03
70968;BME280;58629;48.808;8.820;2023-04-07T09:33:35;96939.00;;;12.51;60.37
70968;BME280;58629;48.808;8.820;2023-04-07T09:36:01;96926.19;;;12.87;56.72
70968;BME280;58629;48.808;8.820;2023-04-07T09:38:38;96934.69;;;12.28;56.49
70968;BME280;58629;48.808;8.820;2023-04-07T09:41:11;96931.19;;;11.90;63.28
70968;BME280;58629;48.808;8.820;2023-04-07T09:43:40;96934.13;;;11.63;63.11
70968;BME280;58629;48.808;8.820;2023-04-07T09:46:26;96930.91;;;11.56;60.18
70968;BME280;58629;48.808;8.820;2023-04-07T09:49:02;96930.38;;;11.61;59.92
70968;BME280;58629;48.808;8.820;2023-04-07T09:51:31;96930.25;;;11.68;59.53
70968;BME280;58629;48.808;8.820;2023-04-07T09:53:58;96927.28;;;11.66;59.07
70968;BME280;58629;48.808;8.820;2023-04-07T09:56:23;96931.22;;;11.58;59.37
70968;BME280;58629;48.808;8.820;2023-04-07T09:58:51;96937.47;;;11.19;63.84
70968;BME280;58629;48.808;8.820;2023-04-07T10:01:18;96935.56;;;10.87;65.88
70968;BME280;58629;48.808;8.820;2023-04-07T10:03:45;96936.28;;;10.88;66.41
70968;BME280;58629;48.808;8.820;2023-04-07T10:06:11;96937.88;;;10.85;63.90
70968;BME280;58629;48.808;8.820;2023-04-07T10:08:39;96938.22;;;10.68;67.05
70968;BME280;58629;48.808;8.820;2023-04-07T10:11:05;96947.78;;;10.45;66.17
70968;BME280;58629;48.808;8.820;2023-04-07T10:13:33;96941.25;;;10.30;67.02
70968;BME280;58629;48.808;8.820;2023-04-07T10:16:02;96943.84;;;10.34;66.63
70968;BME280;58629;48.808;8.820;2023-04-07T10:18:29;96941.59;;;10.32;68.91
70968;BME280;58629;48.808;8.820;2023-04-07T10:20:56;96933.53;;;10.39;65.16
70968;BME280;58629;48.808;8.820;2023-04-07T10:23:30;96939.28;;;10.54;67.72
70968;BME280;58629;48.808;8.820;2023-04-07T10:25:57;96941.88;;;10.58;65.22
70968;BME280;58629;48.808;8.820;2023-04-07T10:28:25;96941.88;;;10.58;63.82
70968;BME280;58629;48.808;8.820;2023-04-07T10:30:52;96937.19;;;10.81;64.18
70968;BME280;58629;48.808;8.820;2023-04-07T10:33:44;96945.63;;;10.76;65.56
70968;BME280;58629;48.808;8.820;2023-04-07T10:36:10;96944.19;;;10.56;66.06
70968;BME280;58629;48.808;8.820;2023-04-07T10:38:36;96944.03;;;10.43;64.27
70968;BME280;58629;48.808;8.820;2023-04-07T10:41:31;96949.75;;;10.22;65.72
70968;BME280;58629;48.808;8.820;2023-04-07T10:43:57;96947.19;;;9.95;66.32
70968;BME280;58629;48.808;8.820;2023-04-07T10:46:23;96943.50;;;10.12;67.77
70968;BME280;58629;48.808;8.820;2023-04-07T10:49:09;96946.03;;;10.19;65.36
70968;BME280;58629;48.808;8.820;2023-04-07T10:51:34;96944.00;;;10.98;69.20
70968;BME280;58629;48.808;8.820;2023-04-07T10:57:09;96936.97;;;11.56;60.62
70968;BME280;58629;48.808;8.820;2023-04-07T10:59:40;96937.81;;;11.98;58.76
70968;BME280;58629;48.808;8.820;2023-04-07T11:04:40;96936.22;;;12.29;55.43
70968;BME280;58629;48.808;8.820;2023-04-07T11:07:10;96941.34;;;12.49;56.70
70968;BME280;58629;48.808;8.820;2023-04-07T11:09:35;96941.78;;;12.60;58.73
70968;BME280;58629;48.808;8.820;2023-04-07T11:12:01;96942.13;;;12.99;59.46
70968;BME280;58629;48.808;8.820;2023-04-07T11:14:28;96939.63;;;12.42;57.04
70968;BME280;58629;48.808;8.820;2023-04-07T11:16:54;96938.63;;;11.95;59.63
70968;BME280;58629;48.808;8.820;2023-04-07T11:19:19;96934.13;;;11.79;62.08
70968;BME280;58629;48.808;8.820;2023-04-07T11:21:45;96927.94;;;11.98;61.88
70968;BME280;58629;48.808;8.820;2023-04-07T11:24:31;96936.47;;;12.18;60.37
70968;BME280;58629;48.808;8.820;2023-04-07T11:26:56;96935.13;;;12.27;59.60
70968;BME280;58629;48.808;8.820;2023-04-07T11:29:29;96942.97;;;11.89;61.51
70968;BME280;58629;48.808;8.820;2023-04-07T11:31:57;96939.81;;;11.94;59.54
70968;BME280;58629;48.808;8.820;2023-04-07T11:34:28;96932.19;;;11.96;57.80
70968;BME280;58629;48.808;8.820;2023-04-07T11:36:54;96934.47;;;12.89;61.11
70968;BME280;58629;48.808;8.820;2023-04-07T11:39:24;96933.19;;;13.31;55.77
70968;BME280;58629;48.808;8.820;2023-04-07T11:41:52;96946.00;;;12.45;59.59
70968;BME280;58629;48.808;8.820;2023-04-07T11:44:18;96938.97;;;11.97;58.68
70968;BME280;58629;48.808;8.820;2023-04-07T11:49:21;96947.72;;;11.33;62.93
70968;BME280;58629;48.808;8.820;2023-04-07T11:51:59;96946.97;;;10.84;63.46
70968;BME280;58629;48.808;8.820;2023-04-07T11:54:25;96949.00;;;10.77;63.56
70968;BME280;58629;48.808;8.820;2023-04-07T11:56:50;96944.38;;;10.81;63.06
70968;BME280;58629;48.808;8.820;2023-04-07T11:59:23;96951.25;;;10.78;63.28
70968;BME280;58629;48.808;8.820;2023-04-07T12:01:50;96954.72;;;10.75;63.27
70968;BME280;58629;48.808;8.820;2023-04-07T12:04:16;96955.41;;;10.79;62.09
70968;BME280;58629;48.808;8.820;2023-04-07T12:06:42;96950.78;;;10.99;64.41
70968;BME280;58629;48.808;8.820;2023-04-07T12:09:22;96955.75;;;10.97;63.54
70968;BME280;58629;48.808;8.820;2023-04-07T12:11:49;96958.91;;;10.92;62.82
70968;BME280;58629;48.808;8.820;2023-04-07T12:14:15;96956.88;;;10.80;63.18
70968;BME280;58629;48.808;8.820;2023-04-07T12:16:40;96950.44;;;10.97;63.42
70968;BME280;58629;48.808;8.820;2023-04-07T12:19:06;96960.22;;;11.00;63.08
70968;BME280;58629;48.808;8.820;2023-04-07T12:21:32;96959.06;;;11.01;60.31
70968;BME280;58629;48.808;8.820;2023-04-07T12:23:57;96967.63;;;11.09;60.21
70968;BME280;58629;48.808;8.820;2023-04-07T12:26:22;96961.91;;;11.10;60.55
70968;BME280;58629;48.808;8.820;2023-04-07T12:28:49;96967.69;;;11.21;60.55
70968;BME280;58629;48.808;8.820;2023-04-07T12:31:14;96973.91;;;11.15;59.89
70968;BME280;58629;48.808;8.820;2023-04-07T12:33:40;96974.09;;;11.24;58.10
70968;BME280;58629;48.808;8.820;2023-04-07T12:36:05;96975.41;;;11.32;58.13
70968;BME280;58629;48.808;8.820;2023-04-07T12:38:30;96976.66;;;11.44;55.79
70968;BME280;58629;48.808;8.820;2023-04-07T12:40:56;96980.38;;;11.62;58.63
70968;BME280;58629;48.808;8.820;2023-04-07T12:43:28;96992.25;;;11.74;63.97
70968;BME280;58629;48.808;8.820;2023-04-07T12:45:53;96989.06;;;11.79;63.48
70968;BME280;58629;48.808;8.820;2023-04-07T12:48:18;96987.41;;;11.85;64.49
70968;BME280;58629;48.808;8.820;2023-04-07T12:50:43;96985.50;;;11.85;65.40
70968;BME280;58629;48.808;8.820;2023-04-07T12:53:09;96990.25;;;11.78;66.63
70968;BME280;58629;48.808;8.820;2023-04-07T12:55:34;96993.41;;;11.73;68.39
70968;BME280;58629;48.808;8.820;2023-04-07T12:58:00;96988.94;;;11.70;68.16
70968;BME280;58629;48.808;8.820;2023-04-07T13:00:26;96992.81;;;11.49;68.58
70968;BME280;58629;48.808;8.820;2023-04-07T13:02:51;96997.59;;;11.22;69.69
70968;BME280;58629;48.808;8.820;2023-04-07T13:05:17;96998.50;;;11.15;69.81
70968;BME280;58629;48.808;8.820;2023-04-07T13:07:43;97005.50;;;10.90;70.14
70968;BME280;58629;48.808;8.820;2023-04-07T13:10:09;97007.50;;;10.66;71.30
70968;BME280;58629;48.808;8.820;2023-04-07T13:12:34;97011.16;;;10.53;72.02
70968;BME280;58629;48.808;8.820;2023-04-07T13:15:00;97011.69;;;10.44;72.74
70968;BME280;58629;48.808;8.820;2023-04-07T13:17:26;97011.38;;;10.42;72.98